Time;durP1;ratioP1;P1;durP2;ratioP2;P2;SDS_P1;SDS_P2;PMS_P1;PMS_P2;Temp;Humidity;BMP_temperature;BMP_pressure;BME280_temperature;BME280_humidity;BME280_pressure;Samples;Min_cycle;Max_cycle;Signal;HPM_P1;HPM_P2
2022/10/26 00:04:59;;;;;;;3.60;2.30;;;14.50;99.90;;;;;;10457936;28;20037;-62
2022/10/26 00:10:00;;;;;;;3.70;2.53;;;14.40;99.90;;;;;;10449649;28;20253;-62
2022/10/26 00:15:01;;;;;;;5.53;2.15;;;14.40;99.90;;;;;;10450773;28;20055;-62
2022/10/26 00:20:02;;;;;;;3.10;2.35;;;14.40;99.90;;;;;;10451583;28;20029;-62
2022/10/26 00:25:03;;;;;;;4.68;2.30;;;14.40;99.90;;;;;;10456631;28;20489;-62
2022/10/26 00:30:04;;;;;;;5.55;2.65;;;14.40;99.90;;;;;;10457323;28;20565;-62
2022/10/26 00:35:05;;;;;;;5.15;2.38;;;14.40;99.90;;;;;;10457380;28;20036;-62
2022/10/26 00:40:06;;;;;;;4.07;2.75;;;14.30;99.90;;;;;;10454871;28;20028;-62
2022/10/26 00:45:19;;;;;;;6.38;2.75;;;14.30;99.90;;;;;;10454123;28;20036;-62
2022/10/26 00:50:25;;;;;;;3.88;2.55;;;14.30;99.90;;;;;;10453733;28;20033;-62
2022/10/26 00:55:31;;;;;;;4.35;2.50;;;14.30;99.90;;;;;;10456668;28;20048;-63
2022/10/26 01:00:32;;;;;;;3.83;2.47;;;14.30;99.90;;;;;;10452543;28;20025;-63
2022/10/26 01:05:34;;;;;;;3.42;2.05;;;14.30;99.90;;;;;;10453981;28;20397;-63
2022/10/26 01:10:39;;;;;;;3.53;2.30;;;14.20;99.90;;;;;;10454007;28;20049;-62
2022/10/26 01:15:55;;;;;;;6.75;2.53;;;14.20;99.90;;;;;;10455441;28;20036;-64
2022/10/26 01:21:29;;;;;;;2.88;2.15;;;14.20;99.90;;;;;;10455925;28;20105;-62
2022/10/26 01:26:49;;;;;;;3.42;2.55;;;14.20;99.90;;;;;;10455667;28;20024;-62
2022/10/26 01:31:58;;;;;;;4.65;2.13;;;14.20;99.90;;;;;;10453035;28;20017;-62
2022/10/26 01:37:10;;;;;;;5.13;2.70;;;14.20;99.90;;;;;;10448786;28;20037;-62
2022/10/26 01:42:14;;;;;;;4.82;2.53;;;14.10;99.90;;;;;;10452638;28;20029;-62
2022/10/26 01:47:17;;;;;;;5.85;2.90;;;14.10;99.90;;;;;;10448268;28;20017;-62
2022/10/26 01:52:19;;;;;;;5.80;3.03;;;14.10;99.90;;;;;;10452409;28;20460;-68
2022/10/26 01:57:20;;;;;;;4.15;2.80;;;14.10;99.90;;;;;;10452983;28;20176;-62
2022/10/26 02:02:57;;;;;;;4.75;2.92;;;14.10;99.90;;;;;;10462393;28;20052;-68
2022/10/26 02:08:14;;;;;;;4.38;2.80;;;14.10;99.90;;;;;;10454537;28;20049;-69
2022/10/26 02:13:36;;;;;;;4.72;2.83;;;14.00;99.90;;;;;;10460655;28;20025;-64
2022/10/26 02:18:47;;;;;;;3.50;2.70;;;14.00;99.90;;;;;;10459233;28;20401;-62
2022/10/26 02:23:50;;;;;;;3.35;2.65;;;14.00;99.90;;;;;;10457373;28;20027;-61
2022/10/26 02:28:55;;;;;;;6.13;2.80;;;14.00;99.90;;;;;;10461190;28;20185;-62
2022/10/26 02:33:59;;;;;;;8.32;3.05;;;14.00;99.90;;;;;;10452587;28;20501;-62
2022/10/26 02:39:03;;;;;;;4.97;2.80;;;14.00;99.90;;;;;;10460977;28;20107;-69
2022/10/26 02:44:33;;;;;;;6.35;3.10;;;14.00;99.90;;;;;;10457268;28;20028;-65
2022/10/26 02:49:33;;;;;;;3.35;2.40;;;14.00;99.90;;;;;;10461045;28;20029;-62
2022/10/26 02:54:46;;;;;;;5.45;2.80;;;14.00;99.90;;;;;;10460418;28;20397;-62
2022/10/26 02:59:48;;;;;;;3.85;2.85;;;14.00;99.90;;;;;;10461193;28;20056;-61
2022/10/26 03:04:49;;;;;;;7.38;3.22;;;14.00;99.90;;;;;;10452596;28;20020;-62
2022/10/26 03:09:50;;;;;;;4.25;2.85;;;14.00;99.90;;;;;;10458927;28;20494;-62
2022/10/26 03:14:51;;;;;;;5.18;3.00;;;13.90;99.90;;;;;;10456178;28;20029;-62
2022/10/26 03:19:52;;;;;;;4.70;3.00;;;13.90;99.90;;;;;;10452676;28;20113;-62
2022/10/26 03:24:53;;;;;;;5.68;3.50;;;13.90;99.90;;;;;;10453570;28;20028;-63
2022/10/26 03:29:53;;;;;;;6.32;3.60;;;14.00;99.90;;;;;;10457109;28;20021;-62
2022/10/26 03:34:54;;;;;;;3.55;2.47;;;13.90;99.90;;;;;;10461571;28;20028;-61
2022/10/26 03:39:55;;;;;;;4.85;3.28;;;13.90;99.90;;;;;;10457970;28;20107;-62
2022/10/26 03:44:55;;;;;;;6.38;3.53;;;13.90;99.90;;;;;;10457576;28;20390;-64
2022/10/26 03:49:56;;;;;;;5.50;3.50;;;13.90;99.90;;;;;;10452466;28;20025;-62
2022/10/26 03:54:57;;;;;;;5.28;3.45;;;13.90;99.90;;;;;;10452970;28;20060;-61
2022/10/26 03:59:58;;;;;;;8.15;3.83;;;13.80;99.90;;;;;;10458007;28;20017;-62
2022/10/26 04:04:59;;;;;;;5.53;3.33;;;13.80;99.90;;;;;;10458779;28;20500;-62
2022/10/26 04:09:59;;;;;;;6.38;3.17;;;13.80;99.90;;;;;;10456495;28;20101;-62
2022/10/26 04:15:00;;;;;;;5.53;3.42;;;13.80;99.90;;;;;;10455375;28;20028;-62
2022/10/26 04:20:02;;;;;;;5.88;3.50;;;13.80;99.90;;;;;;10450186;28;20029;-62
2022/10/26 04:25:04;;;;;;;6.05;3.53;;;13.80;99.90;;;;;;10455112;28;20047;-62
2022/10/26 04:30:08;;;;;;;6.80;3.80;;;13.80;99.90;;;;;;10455753;28;20017;-62
2022/10/26 04:35:09;;;;;;;5.55;3.75;;;13.80;99.90;;;;;;10455247;28;20398;-62
2022/10/26 04:40:10;;;;;;;5.38;3.40;;;13.80;99.90;;;;;;10456814;28;20028;-64
2022/10/26 04:45:12;;;;;;;7.90;4.38;;;13.80;99.90;;;;;;10455633;28;20028;-62
2022/10/26 04:50:13;;;;;;;6.45;3.42;;;13.80;99.90;;;;;;10455183;28;20389;-62
2022/10/26 04:55:14;;;;;;;5.15;3.50;;;13.80;99.90;;;;;;10439903;28;20517;-65
2022/10/26 05:00:15;;;;;;;6.18;3.33;;;13.80;99.90;;;;;;10449916;28;20025;-63
2022/10/26 05:05:15;;;;;;;9.13;3.70;;;13.80;99.90;;;;;;10449779;28;20031;-61
2022/10/26 05:10:16;;;;;;;6.88;3.65;;;13.80;99.90;;;;;;10451470;28;20540;-62
2022/10/26 05:15:17;;;;;;;6.82;3.75;;;13.80;99.90;;;;;;10452331;28;20089;-62
2022/10/26 05:20:18;;;;;;;5.88;3.40;;;13.90;99.90;;;;;;10450791;28;20032;-61
2022/10/26 05:25:18;;;;;;;5.55;3.50;;;13.80;99.90;;;;;;10451612;28;20028;-61
2022/10/26 05:30:19;;;;;;;7.55;3.88;;;13.80;99.90;;;;;;10454058;28;20033;-61
2022/10/26 05:35:20;;;;;;;8.52;4.18;;;13.80;99.90;;;;;;10459264;28;20044;-61
2022/10/26 05:40:21;;;;;;;6.45;3.90;;;13.80;99.90;;;;;;10459921;28;20024;-62
2022/10/26 05:45:22;;;;;;;5.55;3.25;;;13.80;99.90;;;;;;10458159;28;20048;-61
2022/10/26 05:50:23;;;;;;;8.02;4.25;;;13.80;99.90;;;;;;10451078;28;20050;-61
2022/10/26 05:55:24;;;;;;;8.13;4.00;;;13.80;99.90;;;;;;10453447;28;20040;-60
2022/10/26 06:00:26;;;;;;;6.55;3.97;;;13.80;99.90;;;;;;10457435;28;20029;-61
2022/10/26 06:05:31;;;;;;;6.78;3.83;;;13.70;99.90;;;;;;10439444;28;20021;-61
2022/10/26 06:10:33;;;;;;;6.15;3.88;;;13.70;99.90;;;;;;10453833;28;20123;-62
2022/10/26 06:15:44;;;;;;;5.97;3.35;;;13.80;99.90;;;;;;10458355;28;20249;-62
2022/10/26 06:21:14;;;;;;;8.48;3.67;;;13.70;99.90;;;;;;10457481;28;20024;-62
2022/10/26 06:26:34;;;;;;;6.47;3.17;;;13.80;99.90;;;;;;10453961;28;21368;-62
2022/10/26 06:31:35;;;;;;;7.25;3.85;;;13.90;99.90;;;;;;10453602;28;20028;-61
2022/10/26 06:36:39;;;;;;;12.85;3.70;;;13.90;99.90;;;;;;10455019;28;20037;-61
2022/10/26 06:41:40;;;;;;;6.65;3.83;;;13.90;99.90;;;;;;10449531;28;20021;-63
2022/10/26 06:46:47;;;;;;;7.65;3.72;;;13.90;99.90;;;;;;10437167;28;20040;-64
2022/10/26 06:52:09;;;;;;;8.55;4.45;;;13.90;99.90;;;;;;10370447;28;20300;-61
2022/10/26 06:57:12;;;;;;;10.88;3.25;;;13.90;99.90;;;;;;10367465;28;20375;-60
2022/10/26 07:02:13;;;;;;;6.05;3.55;;;13.90;99.90;;;;;;10366737;28;20028;-65
2022/10/26 07:07:20;;;;;;;7.32;3.13;;;14.00;99.90;;;;;;10378752;28;20206;-59
2022/10/26 07:12:21;;;;;;;5.47;3.15;;;13.90;99.90;;;;;;10370469;28;20064;-60
2022/10/26 07:17:23;;;;;;;8.77;3.28;;;13.90;99.90;;;;;;10367757;28;20400;-61
2022/10/26 07:22:24;;;;;;;6.10;3.47;;;13.90;99.90;;;;;;10350688;28;20155;-60
2022/10/26 07:27:24;;;;;;;6.18;3.60;;;13.90;99.90;;;;;;10356600;28;20431;-61
2022/10/26 07:32:25;;;;;;;4.90;3.30;;;13.90;99.90;;;;;;10356568;28;20564;-67
2022/10/26 07:37:26;;;;;;;6.50;3.25;;;13.90;99.90;;;;;;10354582;28;20048;-60
2022/10/26 07:42:27;;;;;;;6.88;3.38;;;14.00;99.90;;;;;;10343250;28;20034;-60
2022/10/26 07:47:28;;;;;;;7.30;3.13;;;14.00;99.90;;;;;;10354248;28;20106;-60
2022/10/26 07:52:28;;;;;;;6.85;3.22;;;14.00;99.90;;;;;;10357831;28;20331;-61
2022/10/26 07:57:29;;;;;;;6.47;3.25;;;14.00;99.90;;;;;;10347323;28;20489;-60
2022/10/26 08:02:30;;;;;;;5.75;3.08;;;14.00;99.90;;;;;;10348735;28;20033;-60
2022/10/26 08:07:31;;;;;;;5.53;2.83;;;14.00;99.90;;;;;;10344692;28;20045;-60
2022/10/26 08:12:32;;;;;;;5.45;2.83;;;14.00;99.90;;;;;;10352112;28;20103;-61
2022/10/26 08:17:33;;;;;;;7.47;3.10;;;14.00;99.90;;;;;;10356793;28;20037;-63
2022/10/26 08:22:33;;;;;;;6.07;2.90;;;14.00;99.90;;;;;;10368557;28;20162;-60
2022/10/26 08:27:34;;;;;;;4.03;2.60;;;14.10;99.90;;;;;;10356006;28;20169;-62
2022/10/26 08:32:35;;;;;;;4.55;2.70;;;14.20;99.90;;;;;;10356319;28;20041;-62
2022/10/26 08:37:36;;;;;;;4.53;2.45;;;14.40;99.90;;;;;;10361210;28;20384;-62
2022/10/26 08:42:41;;;;;;;4.55;2.28;;;14.80;99.90;;;;;;10364566;28;20027;-62
2022/10/26 08:47:49;;;;;;;8.32;3.25;;;14.70;99.90;;;;;;10368570;28;20087;-59
2022/10/26 08:53:01;;;;;;;8.50;3.30;;;14.70;99.90;;;;;;10371730;28;20111;-62
2022/10/26 08:58:06;;;;;;;8.88;3.60;;;14.70;99.90;;;;;;10368370;28;20160;-62
2022/10/26 09:03:17;;;;;;;9.80;3.22;;;14.70;99.90;;;;;;10372181;28;20018;-62
2022/10/26 09:08:56;;;;;;;7.50;3.40;;;14.80;99.90;;;;;;10370374;28;20118;-63
2022/10/26 09:14:18;;;;;;;5.85;3.15;;;14.80;99.90;;;;;;10373623;28;20177;-62
2022/10/26 09:19:43;;;;;;;12.02;3.17;;;14.90;99.90;;;;;;10379983;28;20045;-62
2022/10/26 09:24:53;;;;;;;5.28;2.60;;;15.30;99.90;;;;;;10381549;28;20132;-62
2022/10/26 09:29:56;;;;;;;5.47;2.35;;;15.10;99.90;;;;;;10377392;28;20484;-62
2022/10/26 09:35:04;;;;;;;3.67;2.25;;;15.20;99.90;;;;;;10379581;28;20437;-61
2022/10/26 09:40:26;;;;;;;5.03;2.03;;;15.20;99.90;;;;;;10377716;28;20025;-63
2022/10/26 09:45:36;;;;;;;4.53;2.28;;;15.30;99.90;;;;;;10379511;28;20565;-62
2022/10/26 09:50:41;;;;;;;6.82;2.00;;;15.50;99.90;;;;;;10368835;28;20775;-60
2022/10/26 09:55:45;;;;;;;4.32;2.30;;;15.60;99.90;;;;;;10376473;28;20622;-62
2022/10/26 10:00:46;;;;;;;4.00;2.25;;;15.70;99.90;;;;;;10376536;28;20328;-62
2022/10/26 10:05:47;;;;;;;5.28;2.20;;;16.00;99.90;;;;;;10375237;28;20025;-62
2022/10/26 10:11:01;;;;;;;3.97;2.13;;;15.90;99.90;;;;;;10378778;28;20045;-62
2022/10/26 10:16:19;;;;;;;4.82;2.20;;;16.10;99.90;;;;;;10376373;28;20048;-62
2022/10/26 10:21:20;;;;;;;6.20;2.05;;;16.10;99.90;;;;;;10375759;28;20642;-62
2022/10/26 10:26:21;;;;;;;5.65;2.08;;;16.20;99.90;;;;;;10373376;28;20043;-61
2022/10/26 10:31:27;;;;;;;8.38;2.13;;;16.20;99.90;;;;;;10373699;28;20481;-61
2022/10/26 10:36:29;;;;;;;3.13;2.05;;;16.20;99.90;;;;;;10368849;28;20076;-62
2022/10/26 10:41:36;;;;;;;6.82;2.35;;;16.20;99.90;;;;;;10375514;28;20025;-62
2022/10/26 10:46:37;;;;;;;6.90;2.40;;;16.20;99.90;;;;;;10374864;28;20060;-62
2022/10/26 10:51:39;;;;;;;3.72;2.20;;;16.30;99.90;;;;;;10374339;28;20028;-64
2022/10/26 10:56:46;;;;;;;3.30;2.10;;;16.30;99.90;;;;;;10378396;28;20040;-64
2022/10/26 11:02:05;;;;;;;5.40;2.88;;;16.40;99.90;;;;;;10355342;28;20033;-61
2022/10/26 11:07:06;;;;;;;3.67;2.00;;;16.50;99.90;;;;;;10343389;28;20053;-61
2022/10/26 11:12:23;;;;;;;3.55;2.03;;;16.50;99.90;;;;;;10347665;28;20392;-62
2022/10/26 11:17:46;;;;;;;7.78;2.92;;;16.60;99.90;;;;;;10351281;28;20132;-62
2022/10/26 11:23:20;;;;;;;4.55;2.60;;;16.70;99.90;;;;;;10359461;28;20230;-61
2022/10/26 11:28:51;;;;;;;6.50;2.40;;;16.70;99.90;;;;;;10360337;28;20359;-63
2022/10/26 11:34:26;;;;;;;9.13;2.35;;;16.80;99.90;;;;;;10369845;28;20026;-63
2022/10/26 11:40:05;;;;;;;7.90;2.53;;;16.90;99.90;;;;;;10379120;28;20047;-62
2022/10/26 11:45:27;;;;;;;4.20;2.28;;;17.00;99.90;;;;;;10374671;28;20048;-62
2022/10/26 11:50:33;;;;;;;6.07;2.50;;;17.10;99.90;;;;;;10371129;28;20033;-62
2022/10/26 11:55:34;;;;;;;4.57;2.35;;;17.10;99.90;;;;;;10365418;28;20140;-62
2022/10/26 12:00:48;;;;;;;5.63;2.45;;;17.10;99.90;;;;;;10373289;28;20114;-62
2022/10/26 12:05:50;;;;;;;5.68;2.40;;;17.30;99.90;;;;;;10371444;28;20025;-63
2022/10/26 12:11:12;;;;;;;6.88;2.58;;;17.30;99.90;;;;;;10366332;28;20053;-61
2022/10/26 12:16:32;;;;;;;4.72;2.25;;;17.40;99.90;;;;;;10367249;28;20104;-65
2022/10/26 12:21:33;;;;;;;6.65;2.63;;;17.40;99.90;;;;;;10377498;28;20756;-62
2022/10/26 12:26:34;;;;;;;6.43;2.53;;;17.50;99.90;;;;;;10371372;28;20528;-62
2022/10/26 12:31:35;;;;;;;6.03;3.03;;;17.50;99.90;;;;;;10370628;28;20032;-62
2022/10/26 12:36:53;;;;;;;5.05;3.00;;;17.60;99.90;;;;;;10374349;28;20515;-62
2022/10/26 12:42:08;;;;;;;5.35;3.45;;;17.50;99.90;;;;;;10364359;28;20060;-62
2022/10/26 12:47:29;;;;;;;10.75;3.83;;;17.50;99.90;;;;;;10361584;28;20029;-62
2022/10/26 12:52:56;;;;;;;8.25;3.90;;;17.40;99.90;;;;;;10365420;28;20490;-61
2022/10/26 12:58:25;;;;;;;6.18;3.70;;;17.30;99.90;;;;;;10352534;28;20236;-61
2022/10/26 13:03:34;;;;;;;9.05;4.20;;;17.30;99.90;;;;;;10353780;28;20367;-62
2022/10/26 13:08:41;;;;;;;5.57;3.97;;;17.40;99.90;;;;;;10351518;28;20041;-61
2022/10/26 13:13:42;;;;;;;8.85;4.40;;;17.40;99.90;;;;;;10349439;28;20072;-61
2022/10/26 13:18:47;;;;;;;7.50;4.32;;;17.50;99.90;;;;;;10349362;28;20044;-62
2022/10/26 13:24:00;;;;;;;9.65;3.90;;;17.50;99.90;;;;;;10351623;28;20947;-63
2022/10/26 13:29:03;;;;;;;10.63;3.92;;;17.50;99.90;;;;;;10361808;28;20494;-61
2022/10/26 13:34:09;;;;;;;6.35;3.92;;;17.50;99.90;;;;;;10366536;28;20257;-70
2022/10/26 13:39:18;;;;;;;11.48;3.95;;;17.60;99.90;;;;;;10368635;28;20040;-69
2022/10/26 13:44:32;;;;;;;9.15;4.28;;;17.80;99.90;;;;;;10367849;28;20490;-65
2022/10/26 13:49:42;;;;;;;8.57;4.97;;;17.90;99.90;;;;;;10364617;28;20028;-65
2022/10/26 13:54:53;;;;;;;7.78;4.82;;;17.90;99.90;;;;;;10370894;28;20479;-66
2022/10/26 13:59:56;;;;;;;7.80;4.13;;;18.00;99.90;;;;;;10395919;28;20029;-65
2022/10/26 14:05:02;;;;;;;11.05;4.22;;;18.10;99.90;;;;;;10377130;28;20025;-65
2022/10/26 14:10:04;;;;;;;6.53;4.10;;;17.80;99.90;;;;;;10375170;28;20044;-65
2022/10/26 14:15:09;;;;;;;11.20;4.15;;;18.30;99.90;;;;;;10371285;28;20049;-64
2022/10/26 14:20:18;;;;;;;7.78;4.00;;;18.30;99.90;;;;;;10372164;28;20041;-64
2022/10/26 14:25:28;;;;;;;7.65;4.00;;;18.30;99.90;;;;;;10371673;28;20452;-64
2022/10/26 14:30:32;;;;;;;5.38;4.10;;;18.20;99.90;;;;;;10374873;28;20496;-64
2022/10/26 14:35:40;;;;;;;6.63;4.40;;;18.20;99.90;;;;;;10366641;28;20445;-64
2022/10/26 14:40:42;;;;;;;6.78;3.92;;;18.00;99.90;;;;;;10363625;28;20032;-64
2022/10/26 14:45:48;;;;;;;5.53;3.75;;;17.80;99.90;;;;;;10374520;28;20373;-64
2022/10/26 14:51:07;;;;;;;7.40;4.07;;;17.70;99.90;;;;;;10373077;28;22106;-68
2022/10/26 14:56:40;;;;;;;4.47;3.50;;;17.60;99.90;;;;;;10361653;28;20579;-63
2022/10/26 15:01:57;;;;;;;5.45;3.67;;;17.50;99.90;;;;;;10357264;28;20403;-63
2022/10/26 15:07:06;;;;;;;5.35;3.33;;;17.40;99.90;;;;;;10374399;28;20033;-63
2022/10/26 15:12:29;;;;;;;8.63;3.63;;;18.10;99.90;;;;;;10374639;28;20549;-64
2022/10/26 15:17:36;;;;;;;10.27;3.67;;;17.30;99.90;;;;;;10373132;28;20292;-73
2022/10/26 15:22:38;;;;;;;5.40;3.13;;;17.30;99.90;;;;;;10373597;28;20115;-70
2022/10/26 15:27:40;;;;;;;5.82;3.58;;;17.20;99.90;;;;;;10373285;28;20031;-64
2022/10/26 15:32:40;;;;;;;3.78;3.35;;;17.20;99.90;;;;;;10379793;28;20147;-65
2022/10/26 15:37:41;;;;;;;5.95;3.17;;;17.20;99.90;;;;;;10374200;28;20067;-62
2022/10/26 15:42:44;;;;;;;6.95;3.58;;;17.10;99.90;;;;;;10375012;28;20032;-63
2022/10/26 15:47:46;;;;;;;6.97;3.42;;;17.00;99.90;;;;;;10367387;28;20025;-63
2022/10/26 15:52:47;;;;;;;4.82;3.05;;;17.00;99.90;;;;;;10369146;28;20882;-63
2022/10/26 15:57:49;;;;;;;6.65;3.30;;;16.90;99.90;;;;;;10358833;28;20086;-61
2022/10/26 16:02:50;;;;;;;7.45;3.40;;;16.90;99.90;;;;;;10362799;28;20017;-61
2022/10/26 16:07:51;;;;;;;5.80;3.00;;;16.90;99.90;;;;;;10360404;28;20056;-60
2022/10/26 16:12:52;;;;;;;3.63;3.20;;;16.90;99.90;;;;;;10366764;28;20032;-60
2022/10/26 16:17:53;;;;;;;3.67;3.25;;;16.90;99.90;;;;;;10367423;28;20538;-60
2022/10/26 16:22:53;;;;;;;4.38;2.92;;;16.80;99.90;;;;;;10371961;28;20207;-60
2022/10/26 16:27:54;;;;;;;6.68;3.03;;;16.90;99.90;;;;;;10371757;28;20459;-61
2022/10/26 16:32:55;;;;;;;5.30;2.72;;;16.90;99.90;;;;;;10352882;28;20060;-61
2022/10/26 16:37:56;;;;;;;5.32;3.30;;;16.90;99.90;;;;;;10341465;28;20676;-63
2022/10/26 16:42:58;;;;;;;5.80;3.10;;;16.90;99.90;;;;;;10383791;28;20076;-60
2022/10/26 16:47:58;;;;;;;6.07;2.70;;;16.90;99.90;;;;;;10427066;28;20029;-61
2022/10/26 16:52:59;;;;;;;8.35;3.72;;;16.90;99.90;;;;;;10439562;28;20390;-61
2022/10/26 16:58:00;;;;;;;11.10;4.80;;;16.90;99.90;;;;;;10442482;28;20056;-63
2022/10/26 17:03:01;;;;;;;8.57;3.78;;;16.90;99.90;;;;;;10441508;28;20017;-61
2022/10/26 17:08:02;;;;;;;8.75;4.03;;;16.90;99.90;;;;;;10434932;28;20053;-62
2022/10/26 17:13:03;;;;;;;10.27;4.63;;;16.90;99.90;;;;;;10430294;28;20494;-61
2022/10/26 17:18:03;;;;;;;7.95;4.05;;;16.90;99.90;;;;;;10449080;28;20045;-61
2022/10/26 17:23:05;;;;;;;6.00;3.70;;;16.80;99.90;;;;;;10447152;28;20017;-62
2022/10/26 17:28:06;;;;;;;9.35;3.78;;;16.80;99.90;;;;;;10450314;28;20060;-62
2022/10/26 17:33:07;;;;;;;8.27;3.60;;;16.80;99.90;;;;;;10460783;28;20192;-61
2022/10/26 17:38:07;;;;;;;4.55;3.25;;;16.80;99.90;;;;;;10454470;28;20056;-62
2022/10/26 17:43:08;;;;;;;6.40;3.33;;;16.70;99.90;;;;;;10446102;28;20036;-61
2022/10/26 17:48:09;;;;;;;5.75;3.88;;;16.70;99.90;;;;;;10450298;28;20580;-61
2022/10/26 17:53:10;;;;;;;7.00;3.30;;;16.70;99.90;;;;;;10451310;28;20028;-65
2022/10/26 17:58:10;;;;;;;6.03;3.47;;;16.70;99.90;;;;;;10452361;28;20054;-64
2022/10/26 18:03:11;;;;;;;3.75;3.42;;;16.60;99.90;;;;;;10458309;28;20025;-61
2022/10/26 18:08:12;;;;;;;6.30;3.70;;;16.60;99.90;;;;;;10453584;28;20053;-65
2022/10/26 18:13:12;;;;;;;5.07;3.70;;;16.60;99.90;;;;;;10446454;28;20025;-64
2022/10/26 18:18:13;;;;;;;8.40;3.85;;;16.60;99.90;;;;;;10439593;28;20486;-61
2022/10/26 18:23:14;;;;;;;4.40;3.47;;;16.60;99.90;;;;;;10446537;28;20023;-61
2022/10/26 18:28:15;;;;;;;6.50;3.80;;;16.50;99.90;;;;;;10443643;28;20033;-61
2022/10/26 18:33:16;;;;;;;4.82;3.75;;;16.50;99.90;;;;;;10433329;28;20037;-65
2022/10/26 18:38:16;;;;;;;3.95;3.55;;;16.50;99.90;;;;;;10433225;28;20060;-61
2022/10/26 18:43:17;;;;;;;5.10;3.58;;;16.50;99.90;;;;;;10432310;28;20515;-66
2022/10/26 18:48:18;;;;;;;4.97;3.75;;;16.50;99.90;;;;;;10432023;28;20040;-61
2022/10/26 18:53:18;;;;;;;4.25;3.85;;;16.40;99.90;;;;;;10429470;28;20048;-61
2022/10/26 18:58:19;;;;;;;6.13;4.35;;;16.40;99.90;;;;;;10432999;28;20124;-62
2022/10/26 19:03:20;;;;;;;4.40;3.70;;;16.40;99.90;;;;;;10427073;28;20025;-61
2022/10/26 19:08:20;;;;;;;9.18;4.10;;;16.40;99.90;;;;;;10437710;28;20082;-62
2022/10/26 19:13:21;;;;;;;4.00;3.60;;;16.40;99.90;;;;;;10430817;28;20025;-65
2022/10/26 19:18:22;;;;;;;4.90;3.95;;;16.40;99.90;;;;;;10430577;28;20041;-66
2022/10/26 19:23:23;;;;;;;5.65;3.72;;;16.40;99.90;;;;;;10431900;28;20637;-61
2022/10/26 19:28:24;;;;;;;4.85;4.20;;;16.40;99.90;;;;;;10422791;28;20052;-65
2022/10/26 19:33:25;;;;;;;4.90;3.80;;;16.40;99.90;;;;;;10429233;28;20025;-61
2022/10/26 19:38:26;;;;;;;5.35;3.47;;;16.30;99.90;;;;;;10430463;28;20033;-61
2022/10/26 19:43:29;;;;;;;5.18;3.75;;;16.30;99.90;;;;;;10428234;28;20021;-61
2022/10/26 19:48:30;;;;;;;4.75;3.63;;;16.30;99.90;;;;;;10429218;28;20111;-61
2022/10/26 19:53:31;;;;;;;5.32;3.88;;;16.30;99.90;;;;;;10434125;28;20030;-66
2022/10/26 19:58:32;;;;;;;5.03;3.83;;;16.30;99.90;;;;;;10440929;28;20033;-61
2022/10/26 20:03:33;;;;;;;4.47;3.80;;;16.30;99.90;;;;;;10441366;28;20029;-61
2022/10/26 20:08:37;;;;;;;3.88;3.58;;;16.30;99.90;;;;;;10436530;28;20041;-61
2022/10/26 20:13:39;;;;;;;5.35;3.80;;;16.20;99.90;;;;;;10439528;28;20056;-61
2022/10/26 20:18:40;;;;;;;4.05;3.55;;;16.20;99.90;;;;;;10442805;28;20044;-61
2022/10/26 20:23:41;;;;;;;4.75;3.88;;;16.20;99.90;;;;;;10440848;28;20493;-62
2022/10/26 20:28:46;;;;;;;4.13;3.65;;;16.20;99.90;;;;;;10443471;28;20438;-61
2022/10/26 20:33:51;;;;;;;4.05;3.47;;;16.20;99.90;;;;;;10437902;28;20052;-61
2022/10/26 20:38:52;;;;;;;4.57;3.75;;;16.20;99.90;;;;;;10441065;28;20098;-62
2022/10/26 20:43:55;;;;;;;4.95;3.58;;;16.10;99.90;;;;;;10441236;28;20056;-61
2022/10/26 20:48:56;;;;;;;5.70;3.83;;;15.80;99.90;;;;;;10439935;28;20020;-61
2022/10/26 20:54:10;;;;;;;4.35;3.40;;;16.10;99.90;;;;;;10436552;28;20448;-62
2022/10/26 20:59:48;;;;;;;3.92;3.60;;;16.10;99.90;;;;;;10435940;28;20075;-61
2022/10/26 21:04:49;;;;;;;4.53;3.47;;;16.10;99.90;;;;;;10416230;28;20037;-61
2022/10/26 21:09:49;;;;;;;5.00;3.88;;;16.10;99.90;;;;;;10448161;28;20043;-61
2022/10/26 21:14:50;;;;;;;5.15;3.35;;;16.10;99.90;;;;;;10446242;28;20116;-61
2022/10/26 21:19:51;;;;;;;5.75;3.35;;;16.10;99.90;;;;;;10455959;28;20025;-61
2022/10/26 21:24:51;;;;;;;4.43;3.42;;;16.10;99.90;;;;;;10455751;28;20393;-61
2022/10/26 21:29:52;;;;;;;5.20;3.33;;;16.00;99.90;;;;;;10450875;28;20056;-61
2022/10/26 21:34:53;;;;;;;3.55;3.17;;;16.00;99.90;;;;;;10447918;28;20120;-61
2022/10/26 21:39:54;;;;;;;4.75;3.08;;;16.00;99.90;;;;;;10453991;28;20059;-61
2022/10/26 21:44:55;;;;;;;3.85;3.10;;;16.00;99.90;;;;;;10453155;28;20121;-62
2022/10/26 21:49:56;;;;;;;4.10;2.63;;;16.00;99.90;;;;;;10456172;28;20478;-61
2022/10/26 21:54:56;;;;;;;4.00;3.15;;;15.90;99.90;;;;;;10455676;28;20660;-62
2022/10/26 21:59:57;;;;;;;3.70;3.03;;;16.00;99.90;;;;;;10458898;28;21385;-62
2022/10/26 22:04:58;;;;;;;4.10;2.80;;;16.00;99.90;;;;;;10458272;28;20024;-61
2022/10/26 22:09:59;;;;;;;3.47;2.70;;;16.00;99.90;;;;;;10454520;28;20546;-61
2022/10/26 22:14:59;;;;;;;3.03;2.70;;;15.90;99.90;;;;;;10455343;28;20128;-62
2022/10/26 22:20:00;;;;;;;5.63;2.90;;;15.90;99.90;;;;;;10453516;28;21004;-61
2022/10/26 22:25:01;;;;;;;5.63;3.30;;;15.90;99.90;;;;;;10459615;28;20028;-61
2022/10/26 22:30:02;;;;;;;4.10;2.58;;;15.90;99.90;;;;;;10460250;28;20473;-61
2022/10/26 22:35:03;;;;;;;4.45;3.00;;;15.90;99.90;;;;;;10460102;28;20033;-61
2022/10/26 22:40:04;;;;;;;5.20;2.72;;;15.90;99.90;;;;;;10459980;28;20028;-62
2022/10/26 22:45:05;;;;;;;4.28;2.55;;;15.80;99.90;;;;;;10461392;28;20032;-61
2022/10/26 22:50:06;;;;;;;2.72;2.40;;;15.80;99.90;;;;;;10459565;28;20485;-62
2022/10/26 22:55:07;;;;;;;3.42;2.75;;;15.80;99.90;;;;;;10454163;28;20032;-62
2022/10/26 23:00:08;;;;;;;4.15;2.70;;;15.80;99.90;;;;;;10459217;28;20028;-61
2022/10/26 23:05:08;;;;;;;4.88;2.75;;;15.80;99.90;;;;;;10457031;28;20082;-61
2022/10/26 23:10:09;;;;;;;4.10;2.50;;;15.80;99.90;;;;;;10460041;28;20044;-61
2022/10/26 23:15:10;;;;;;;4.95;2.90;;;15.80;99.90;;;;;;10457923;28;20040;-61
2022/10/26 23:20:11;;;;;;;3.20;2.58;;;15.70;99.90;;;;;;10456376;28;20063;-62
2022/10/26 23:25:12;;;;;;;4.72;2.65;;;15.70;99.90;;;;;;10456686;28;20032;-62
2022/10/26 23:30:12;;;;;;;5.28;2.72;;;15.70;99.90;;;;;;10457933;28;20036;-64
2022/10/26 23:35:13;;;;;;;5.63;2.60;;;15.70;99.90;;;;;;10458540;28;21438;-62
2022/10/26 23:40:14;;;;;;;4.03;2.28;;;15.70;99.90;;;;;;10455831;28;20024;-61
2022/10/26 23:45:15;;;;;;;2.92;2.33;;;15.70;99.90;;;;;;10457293;28;20025;-62
2022/10/26 23:50:15;;;;;;;3.55;2.50;;;15.60;99.90;;;;;;10454658;28;20470;-65
2022/10/26 23:55:16;;;;;;;3.45;2.40;;;15.60;99.90;;;;;;10457869;28;20045;-62
